createdAt,value
2022-08-25T00:00:09.543Z,19.76
2022-08-25T00:01:09.141Z,19.73
2022-08-25T00:02:09.940Z,19.68
2022-08-25T00:03:09.196Z,19.65
2022-08-25T00:04:09.235Z,19.62
2022-08-25T00:05:09.223Z,19.58
2022-08-25T00:06:09.323Z,19.56
2022-08-25T00:07:09.038Z,19.51
2022-08-25T00:08:09.037Z,19.48
2022-08-25T00:09:09.055Z,19.44
2022-08-25T00:10:09.011Z,19.41
2022-08-25T00:11:09.012Z,19.37
2022-08-25T00:12:08.984Z,19.32
2022-08-25T00:13:08.989Z,19.29
2022-08-25T00:14:09.000Z,19.29
2022-08-25T00:15:08.977Z,19.25
2022-08-25T00:16:09.023Z,19.23
2022-08-25T00:17:08.994Z,19.21
2022-08-25T00:18:19.556Z,19.19
2022-08-25T00:19:09.868Z,19.14
2022-08-25T00:20:08.897Z,19.13
2022-08-25T00:21:08.857Z,19.13
2022-08-25T00:22:08.918Z,19.10
2022-08-25T00:23:08.866Z,19.08
2022-08-25T00:24:08.880Z,19.07
2022-08-25T00:25:08.947Z,19.02
2022-08-25T00:26:08.838Z,19.00
2022-08-25T00:27:08.863Z,18.98
2022-08-25T00:28:08.945Z,18.94
2022-08-25T00:29:08.897Z,18.92
2022-08-25T00:30:08.782Z,18.90
2022-08-25T00:31:08.948Z,18.88
2022-08-25T00:32:08.785Z,18.85
2022-08-25T00:33:08.775Z,18.85
2022-08-25T00:34:08.756Z,18.84
2022-08-25T00:35:08.746Z,18.81
2022-08-25T00:36:08.754Z,18.80
2022-08-25T00:37:08.751Z,18.78
2022-08-25T00:38:08.706Z,18.78
2022-08-25T00:39:08.699Z,18.75
2022-08-25T00:40:08.694Z,18.72
2022-08-25T00:41:08.699Z,18.69
2022-08-25T00:42:11.729Z,18.67
2022-08-25T00:43:09.650Z,18.65
2022-08-25T00:44:08.648Z,18.62
2022-08-25T00:45:08.654Z,18.58
2022-08-25T00:46:08.667Z,18.55
2022-08-25T00:47:08.646Z,18.52
2022-08-25T00:48:08.606Z,18.52
2022-08-25T00:49:08.567Z,18.48
2022-08-25T00:50:09.577Z,18.47
2022-08-25T00:51:08.582Z,18.44
2022-08-25T00:52:08.577Z,18.41
2022-08-25T00:53:08.542Z,18.39
2022-08-25T00:54:08.539Z,18.36
2022-08-25T00:55:08.657Z,18.33
2022-08-25T00:56:08.516Z,18.33
2022-08-25T00:57:08.472Z,18.32
2022-08-25T00:58:08.472Z,18.30
2022-08-25T00:59:08.484Z,18.29
2022-08-25T01:00:08.480Z,18.27
2022-08-25T01:01:08.504Z,18.29
2022-08-25T01:02:13.549Z,18.26
2022-08-25T01:03:09.426Z,18.25
2022-08-25T01:04:08.404Z,18.23
2022-08-25T01:05:08.390Z,18.23
2022-08-25T01:06:08.382Z,18.23
2022-08-25T01:07:08.367Z,18.23
2022-08-25T01:08:09.388Z,18.23
2022-08-25T01:09:08.375Z,18.20
2022-08-25T01:10:08.382Z,18.21
2022-08-25T01:11:08.354Z,18.23
2022-08-25T01:12:08.329Z,18.21
2022-08-25T01:13:16.419Z,18.21
2022-08-25T01:14:09.302Z,18.20
2022-08-25T01:15:08.306Z,18.18
2022-08-25T01:16:08.399Z,18.18
2022-08-25T01:17:08.406Z,18.15
2022-08-25T01:18:08.315Z,18.11
2022-08-25T01:19:08.272Z,18.10
2022-08-25T01:20:08.242Z,18.08
2022-08-25T01:21:08.258Z,18.07
2022-08-25T01:22:08.213Z,18.07
2022-08-25T01:23:08.195Z,18.02
2022-08-25T01:24:08.303Z,18.00
2022-08-25T01:25:08.172Z,17.97
2022-08-25T01:26:08.148Z,17.92
2022-08-25T01:27:08.184Z,17.92
2022-08-25T01:28:08.191Z,17.89
2022-08-25T01:29:08.082Z,17.84
2022-08-25T01:30:08.133Z,17.82
2022-08-25T01:31:23.528Z,17.81
2022-08-25T01:32:09.107Z,17.79
2022-08-25T01:33:08.116Z,17.79
2022-08-25T01:34:08.097Z,17.77
2022-08-25T01:35:08.118Z,17.74
2022-08-25T01:36:08.039Z,17.74
2022-08-25T01:37:08.045Z,17.71
2022-08-25T01:38:08.066Z,17.66
2022-08-25T01:39:08.027Z,17.63
2022-08-25T01:40:08.079Z,17.59
2022-08-25T01:41:08.004Z,17.58
2022-08-25T01:42:07.975Z,17.55
2022-08-25T01:43:07.992Z,17.52
2022-08-25T01:44:08.776Z,17.52
2022-08-25T01:45:08.972Z,17.49
2022-08-25T01:46:07.997Z,17.44
2022-08-25T01:47:07.920Z,17.41
2022-08-25T01:48:07.906Z,17.41
2022-08-25T01:49:07.938Z,17.40
2022-08-25T01:50:07.946Z,17.37
2022-08-25T01:51:07.917Z,17.36
2022-08-25T01:52:07.911Z,17.37
2022-08-25T01:53:07.862Z,17.33
2022-08-25T01:54:07.866Z,17.30
2022-08-25T01:55:07.845Z,17.30
2022-08-25T01:56:09.767Z,17.31
2022-08-25T01:57:07.797Z,17.28
2022-08-25T01:58:07.814Z,17.28
2022-08-25T01:59:07.793Z,17.23
2022-08-25T02:00:07.796Z,17.22
2022-08-25T02:01:07.832Z,17.19
2022-08-25T02:02:07.821Z,17.18
2022-08-25T02:03:07.793Z,17.18
2022-08-25T02:04:08.757Z,17.18
2022-08-25T02:05:07.742Z,17.16
2022-08-25T02:06:07.734Z,17.15
2022-08-25T02:07:07.723Z,17.12
2022-08-25T02:08:07.729Z,17.08
2022-08-25T02:09:07.735Z,17.06
2022-08-25T02:10:07.666Z,17.06
2022-08-25T02:11:07.677Z,17.04
2022-08-25T02:12:07.658Z,17.03
2022-08-25T02:13:08.375Z,17.00
2022-08-25T02:14:07.701Z,16.98
2022-08-25T02:15:07.643Z,16.97
2022-08-25T02:16:07.668Z,16.96
2022-08-25T02:17:07.661Z,16.96
2022-08-25T02:18:07.630Z,16.97
2022-08-25T02:19:07.586Z,16.96
2022-08-25T02:20:07.556Z,16.96
2022-08-25T02:21:07.576Z,16.94
2022-08-25T02:22:07.590Z,16.96
2022-08-25T02:23:07.545Z,16.96
2022-08-25T02:24:07.548Z,16.96
2022-08-25T02:25:07.585Z,16.93
2022-08-25T02:26:07.539Z,16.94
2022-08-25T02:27:07.505Z,16.94
2022-08-25T02:28:07.476Z,16.89
2022-08-25T02:29:07.525Z,16.89
2022-08-25T02:30:07.498Z,16.89
2022-08-25T02:31:07.561Z,16.89
2022-08-25T02:32:07.435Z,16.88
2022-08-25T02:33:07.426Z,16.86
2022-08-25T02:34:07.621Z,16.86
2022-08-25T02:35:07.454Z,16.86
2022-08-25T02:36:07.370Z,16.83
2022-08-25T02:37:07.386Z,16.82
2022-08-25T02:38:07.389Z,16.81
2022-08-25T02:39:07.373Z,16.79
2022-08-25T02:40:07.395Z,16.78
2022-08-25T02:41:07.356Z,16.78
2022-08-25T02:42:07.296Z,16.73
2022-08-25T02:43:07.313Z,16.75
2022-08-25T02:44:07.354Z,16.71
2022-08-25T02:45:07.336Z,16.68
2022-08-25T02:46:07.378Z,16.67
2022-08-25T02:47:07.386Z,16.64
2022-08-25T02:48:07.330Z,16.64
2022-08-25T02:51:20.280Z,16.57
2022-08-25T02:52:20.155Z,16.53
2022-08-25T02:53:20.174Z,16.52
2022-08-25T02:54:20.082Z,16.50
2022-08-25T02:55:20.078Z,16.49
2022-08-25T02:56:20.014Z,16.46
2022-08-25T02:57:19.995Z,16.46
2022-08-25T03:00:10.412Z,16.43
2022-08-25T03:01:10.218Z,16.39
2022-08-25T03:02:10.092Z,16.34
2022-08-25T03:03:10.098Z,16.33
2022-08-25T03:04:10.276Z,16.33
2022-08-25T03:05:10.113Z,16.30
2022-08-25T03:06:10.057Z,16.27
2022-08-25T03:07:10.078Z,16.27
2022-08-25T03:08:10.038Z,16.24
2022-08-25T03:09:10.045Z,16.25
2022-08-25T03:10:09.991Z,16.24
2022-08-25T03:11:10.017Z,16.24
2022-08-25T03:12:10.019Z,16.24
2022-08-25T03:13:10.009Z,16.25
2022-08-25T03:14:09.971Z,16.25
2022-08-25T03:15:13.114Z,16.27
2022-08-25T03:16:10.966Z,16.25
2022-08-25T03:17:10.975Z,16.25
2022-08-25T03:18:09.906Z,16.24
2022-08-25T03:19:09.986Z,16.23
2022-08-25T03:20:10.064Z,16.24
2022-08-25T03:21:09.964Z,16.17
2022-08-25T03:22:10.222Z,16.17
2022-08-25T03:23:10.199Z,16.14
2022-08-25T03:24:09.937Z,16.12
2022-08-25T03:25:09.868Z,16.09
2022-08-25T03:26:09.994Z,16.09
2022-08-25T03:27:10.721Z,16.08
2022-08-25T03:28:10.072Z,16.08
2022-08-25T03:29:09.903Z,16.08
2022-08-25T03:30:09.773Z,16.09
2022-08-25T03:31:09.876Z,16.08
2022-08-25T03:32:10.255Z,16.07
2022-08-25T03:33:09.791Z,16.04
2022-08-25T03:34:09.829Z,16.04
2022-08-25T03:35:09.870Z,16.02
2022-08-25T03:36:09.710Z,16.01
2022-08-25T03:37:09.716Z,16.01
2022-08-25T03:38:10.155Z,16.00
2022-08-25T03:39:09.769Z,16.00
2022-08-25T03:40:09.811Z,16.00
2022-08-25T03:41:10.674Z,16.01
2022-08-25T03:42:09.747Z,16.00
2022-08-25T03:43:09.733Z,15.96
2022-08-25T03:44:09.671Z,15.96
2022-08-25T03:45:09.605Z,15.92
2022-08-25T03:46:09.678Z,15.89
2022-08-25T03:47:09.854Z,15.86
2022-08-25T03:48:09.623Z,15.84
2022-08-25T03:49:09.634Z,15.82
2022-08-25T03:50:09.858Z,15.78
2022-08-25T03:51:09.632Z,15.78
2022-08-25T03:52:09.715Z,15.78
2022-08-25T03:53:09.609Z,15.78
2022-08-25T03:54:09.545Z,15.78
2022-08-25T03:55:10.021Z,15.78
2022-08-25T03:56:09.528Z,15.76
2022-08-25T03:57:09.585Z,15.74
2022-08-25T03:58:11.631Z,15.74
2022-08-25T03:59:09.602Z,15.74
2022-08-25T04:00:09.554Z,15.72
2022-08-25T04:01:09.563Z,15.69
2022-08-25T04:02:09.500Z,15.69
2022-08-25T04:03:09.777Z,15.65
2022-08-25T04:04:09.529Z,15.65
2022-08-25T04:05:09.414Z,15.65
2022-08-25T04:06:09.887Z,15.64
2022-08-25T04:07:09.843Z,15.64
2022-08-25T04:08:13.723Z,15.64
2022-08-25T04:09:09.744Z,15.65
2022-08-25T04:10:09.731Z,15.65
2022-08-25T04:11:09.388Z,15.67
2022-08-25T04:12:09.375Z,15.67
2022-08-25T04:13:09.452Z,15.68
2022-08-25T04:14:09.398Z,15.65
2022-08-25T04:15:09.383Z,15.68
2022-08-25T04:16:09.505Z,15.69
2022-08-25T04:17:09.276Z,15.72
2022-08-25T04:18:09.276Z,15.72
2022-08-25T04:19:09.316Z,15.74
2022-08-25T04:20:09.581Z,15.72
2022-08-25T04:21:09.355Z,15.72
2022-08-25T04:22:09.351Z,15.71
2022-08-25T04:23:09.666Z,15.71
2022-08-25T04:24:09.738Z,15.68
2022-08-25T04:25:09.315Z,15.67
2022-08-25T04:26:09.326Z,15.64
2022-08-25T04:27:09.252Z,15.64
2022-08-25T04:28:09.390Z,15.60
2022-08-25T04:29:10.989Z,15.59
2022-08-25T04:30:09.132Z,15.57
2022-08-25T04:31:09.110Z,15.56
2022-08-25T04:32:09.201Z,15.56
2022-08-25T04:33:09.187Z,15.56
2022-08-25T04:34:19.503Z,15.56
2022-08-25T04:35:10.433Z,15.56
2022-08-25T04:36:12.216Z,15.56
2022-08-25T04:37:09.483Z,15.57
2022-08-25T04:38:09.083Z,15.57
2022-08-25T04:39:09.035Z,15.57
2022-08-25T04:40:09.158Z,15.56
2022-08-25T04:41:09.143Z,15.56
2022-08-25T04:42:09.985Z,15.53
2022-08-25T04:43:09.005Z,15.53
2022-08-25T04:44:09.093Z,15.53
2022-08-25T04:45:09.933Z,15.54
2022-08-25T04:46:09.219Z,15.53
2022-08-25T04:47:09.049Z,15.54
2022-08-25T04:48:09.046Z,15.54
2022-08-25T04:49:09.046Z,15.56
2022-08-25T04:50:08.912Z,15.53
2022-08-25T04:51:08.877Z,15.56
2022-08-25T04:52:14.340Z,15.54
2022-08-25T04:53:09.968Z,15.54
2022-08-25T04:54:09.008Z,15.56
2022-08-25T04:55:08.852Z,15.54
2022-08-25T04:56:08.843Z,15.57
2022-08-25T04:57:08.829Z,15.56
2022-08-25T04:58:14.742Z,15.59
2022-08-25T04:59:09.935Z,15.60
2022-08-25T05:00:08.817Z,15.64
2022-08-25T05:01:08.957Z,15.65
2022-08-25T05:02:08.815Z,15.68
2022-08-25T05:03:08.861Z,15.69
2022-08-25T05:04:08.792Z,15.74
2022-08-25T05:05:09.756Z,15.76
2022-08-25T05:06:11.787Z,15.82
2022-08-25T05:07:09.758Z,15.84
2022-08-25T05:08:08.772Z,15.90
2022-08-25T05:09:08.732Z,15.94
2022-08-25T05:10:08.684Z,15.97
2022-08-25T05:11:08.780Z,16.00
2022-08-25T05:12:08.736Z,16.02
2022-08-25T05:13:08.692Z,16.05
2022-08-25T05:14:08.658Z,16.08
2022-08-25T05:15:08.705Z,16.11
2022-08-25T05:16:09.940Z,16.14
2022-08-25T05:17:09.544Z,16.15
2022-08-25T05:18:08.796Z,16.21
2022-08-25T05:19:08.633Z,16.24
2022-08-25T05:20:08.716Z,16.27
2022-08-25T05:21:08.567Z,16.31
2022-08-25T05:22:08.533Z,16.33
2022-08-25T05:23:08.625Z,16.35
2022-08-25T05:24:08.550Z,16.42
2022-08-25T05:25:08.591Z,16.46
2022-08-25T05:26:08.563Z,16.50
2022-08-25T05:27:08.496Z,16.56
2022-08-25T05:28:08.486Z,16.61
2022-08-25T05:29:08.529Z,16.67
2022-08-25T05:30:08.481Z,16.75
2022-08-25T05:31:08.561Z,16.81
2022-08-25T05:32:08.573Z,16.88
2022-08-25T05:33:08.544Z,16.93
2022-08-25T05:34:08.444Z,16.94
2022-08-25T05:35:08.411Z,16.98
2022-08-25T05:36:08.386Z,17.03
2022-08-25T05:37:12.037Z,17.07
2022-08-25T05:38:08.531Z,17.11
2022-08-25T05:39:09.414Z,17.15
2022-08-25T05:40:08.519Z,17.18
2022-08-25T05:41:08.408Z,17.22
2022-08-25T05:42:08.419Z,17.26
2022-08-25T05:43:08.603Z,17.31
2022-08-25T05:44:08.291Z,17.37
2022-08-25T05:45:08.413Z,17.43
2022-08-25T05:46:08.431Z,17.51
2022-08-25T05:47:08.617Z,17.55
2022-08-25T05:48:08.582Z,17.62
2022-08-25T05:49:08.634Z,17.68
2022-08-25T05:50:08.252Z,17.74
2022-08-25T05:51:08.244Z,17.78
2022-08-25T05:52:08.285Z,17.87
2022-08-25T05:53:08.249Z,17.93
2022-08-25T05:54:08.239Z,17.99
2022-08-25T05:55:08.480Z,18.08
2022-08-25T05:56:08.189Z,18.17
2022-08-25T05:57:08.177Z,18.25
2022-08-25T05:58:08.162Z,18.30
2022-08-25T05:59:09.738Z,18.39
2022-08-25T06:00:08.227Z,18.47
2022-08-25T06:01:08.195Z,18.58
2022-08-25T06:02:08.168Z,18.69
2022-08-25T06:03:08.122Z,18.75
2022-08-25T06:04:08.139Z,18.81
2022-08-25T06:05:08.150Z,18.85
2022-08-25T06:06:08.050Z,18.91
2022-08-25T06:07:08.183Z,18.98
2022-08-25T06:08:08.124Z,19.04
2022-08-25T06:09:08.120Z,19.10
2022-08-25T06:10:08.333Z,19.16
2022-08-25T06:11:08.068Z,19.22
2022-08-25T06:12:08.360Z,19.26
2022-08-25T06:13:08.094Z,19.31
2022-08-25T06:14:07.969Z,19.37
2022-08-25T06:15:07.993Z,19.41
2022-08-25T06:16:08.032Z,19.50
2022-08-25T06:17:08.084Z,19.55
2022-08-25T06:18:08.112Z,19.63
2022-08-25T06:19:07.950Z,19.69
2022-08-25T06:20:08.290Z,19.76
2022-08-25T06:21:08.852Z,19.83
2022-08-25T06:22:07.888Z,19.88
2022-08-25T06:23:07.983Z,19.96
2022-08-25T06:24:10.985Z,20.02
2022-08-25T06:25:09.052Z,20.10
2022-08-25T06:26:08.665Z,20.14
2022-08-25T06:27:08.228Z,20.20
2022-08-25T06:28:08.374Z,20.26
2022-08-25T06:29:08.063Z,20.32
2022-08-25T06:30:08.236Z,20.38
2022-08-25T06:31:08.195Z,20.42
2022-08-25T06:32:08.290Z,20.51
2022-08-25T06:33:08.205Z,20.55
2022-08-25T06:34:08.804Z,20.62
2022-08-25T06:35:09.017Z,20.69
2022-08-25T06:36:07.916Z,20.74
2022-08-25T06:37:07.907Z,20.80
2022-08-25T06:38:08.270Z,20.89
2022-08-25T06:39:08.155Z,20.97
2022-08-25T06:40:08.063Z,21.03
2022-08-25T06:41:07.794Z,21.09
2022-08-25T06:42:08.674Z,21.16
2022-08-25T06:43:07.793Z,21.24
2022-08-25T06:44:08.071Z,21.32
2022-08-25T06:45:08.035Z,21.38
2022-08-25T06:46:07.776Z,21.44
2022-08-25T06:47:07.856Z,21.50
2022-08-25T06:48:08.439Z,21.56
2022-08-25T06:49:07.957Z,21.64
2022-08-25T06:50:08.063Z,21.68
2022-08-25T06:51:07.903Z,21.75
2022-08-25T06:52:07.667Z,21.82
2022-08-25T06:53:14.506Z,21.88
2022-08-25T06:54:09.535Z,21.94
2022-08-25T06:55:07.469Z,21.99
2022-08-25T06:56:10.157Z,22.05
2022-08-25T06:57:07.458Z,22.09
2022-08-25T06:58:10.208Z,22.17
2022-08-25T06:59:07.425Z,22.20
2022-08-25T07:00:07.419Z,22.25
2022-08-25T07:01:07.462Z,22.33
2022-08-25T07:02:08.468Z,22.39
2022-08-25T07:03:07.373Z,22.40
2022-08-25T07:04:11.792Z,22.49
2022-08-25T07:05:13.184Z,22.55
2022-08-25T07:06:08.339Z,22.60
2022-08-25T07:07:07.348Z,22.62
2022-08-25T07:08:07.329Z,22.72
2022-08-25T07:09:07.320Z,22.76
2022-08-25T07:10:07.312Z,22.83
2022-08-25T07:11:07.362Z,22.88
2022-08-25T07:12:08.282Z,22.95
2022-08-25T07:13:07.277Z,23.00
2022-08-25T07:14:07.271Z,23.05
2022-08-25T07:15:19.672Z,23.12
2022-08-25T07:16:08.318Z,23.16
2022-08-25T07:17:12.020Z,23.22
2022-08-25T07:18:08.224Z,23.27
2022-08-25T07:19:08.289Z,23.33
2022-08-25T07:20:07.247Z,23.38
2022-08-25T07:21:08.902Z,23.42
2022-08-25T07:22:07.184Z,23.47
2022-08-25T07:23:07.168Z,23.54
2022-08-25T07:24:07.157Z,23.57
2022-08-25T07:25:07.143Z,23.63
2022-08-25T07:26:15.684Z,23.69
2022-08-25T07:27:08.128Z,23.78
2022-08-25T07:28:07.126Z,23.85
2022-08-25T07:29:07.097Z,23.88
2022-08-25T07:30:07.083Z,23.95
2022-08-25T07:31:07.127Z,23.98
2022-08-25T07:32:07.065Z,24.08
2022-08-25T07:33:07.313Z,24.15
2022-08-25T07:34:07.048Z,24.24
2022-08-25T07:35:07.046Z,24.31
2022-08-25T07:36:07.026Z,24.40
2022-08-25T07:37:07.016Z,24.45
2022-08-25T07:38:07.006Z,24.50
2022-08-25T07:39:06.984Z,24.55
2022-08-25T07:40:07.073Z,24.60
2022-08-25T07:41:06.977Z,24.67
2022-08-25T07:42:11.932Z,24.76
2022-08-25T07:43:08.003Z,24.78
2022-08-25T07:44:06.933Z,24.88
2022-08-25T07:45:07.316Z,24.91
2022-08-25T07:46:06.931Z,24.99
2022-08-25T07:47:06.919Z,25.02
2022-08-25T07:48:06.937Z,25.05
2022-08-25T07:49:16.337Z,25.09
2022-08-25T07:50:07.869Z,25.10
2022-08-25T07:51:07.570Z,25.13
2022-08-25T07:52:07.054Z,25.14
2022-08-25T07:53:07.145Z,25.20
2022-08-25T07:54:06.829Z,25.21
2022-08-25T07:55:08.156Z,25.30
2022-08-25T07:56:06.813Z,25.36
2022-08-25T07:57:06.795Z,25.43
2022-08-25T07:58:06.926Z,25.52
2022-08-25T07:59:07.734Z,25.62
2022-08-25T08:00:06.766Z,25.69
2022-08-25T08:01:06.753Z,25.76
2022-08-25T08:02:06.793Z,25.85
2022-08-25T08:03:07.003Z,25.95
2022-08-25T08:04:06.775Z,26.02
2022-08-25T08:05:09.568Z,26.12
2022-08-25T08:06:06.708Z,26.23
2022-08-25T08:07:06.689Z,26.33
2022-08-25T08:08:07.845Z,26.37
2022-08-25T08:09:06.661Z,26.44
2022-08-25T08:10:42.370Z,26.51
2022-08-25T08:11:07.651Z,26.57
2022-08-25T08:12:06.851Z,26.62
2022-08-25T08:13:07.700Z,26.70
2022-08-25T08:14:06.608Z,26.73
2022-08-25T08:15:10.325Z,26.76
2022-08-25T08:16:06.654Z,26.81
2022-08-25T08:17:06.605Z,26.84
2022-08-25T08:18:07.296Z,26.88
2022-08-25T08:19:06.561Z,26.91
2022-08-25T08:20:06.552Z,26.95
2022-08-25T08:21:06.550Z,26.97
2022-08-25T08:22:06.525Z,26.99
2022-08-25T08:23:06.718Z,27.04
2022-08-25T08:24:14.783Z,27.07
2022-08-25T08:25:10.576Z,27.09
2022-08-25T08:26:06.495Z,27.17
2022-08-25T08:27:06.477Z,27.22
2022-08-25T08:28:07.319Z,27.27
2022-08-25T08:29:06.448Z,27.36
2022-08-25T08:30:06.430Z,27.46
2022-08-25T08:31:06.525Z,27.47
2022-08-25T08:32:06.417Z,27.51
2022-08-25T08:33:10.030Z,27.51
2022-08-25T08:34:06.413Z,27.43
2022-08-25T08:35:06.394Z,27.43
2022-08-25T08:36:06.395Z,27.27
2022-08-25T08:37:06.366Z,27.22
2022-08-25T08:38:14.796Z,27.34
2022-08-25T08:39:08.062Z,27.51
2022-08-25T08:40:06.414Z,27.55
2022-08-25T08:41:06.312Z,27.67
2022-08-25T08:42:11.276Z,27.77
2022-08-25T08:43:13.339Z,27.84
2022-08-25T08:44:07.284Z,27.88
2022-08-25T08:45:06.271Z,27.97
2022-08-25T08:46:06.292Z,28.06
2022-08-25T08:47:08.988Z,28.06
2022-08-25T08:48:06.712Z,28.00
2022-08-25T08:49:06.259Z,27.90
2022-08-25T08:50:06.221Z,27.88
2022-08-25T08:51:09.717Z,27.92
2022-08-25T08:52:06.203Z,28.00
2022-08-25T08:53:06.254Z,28.14
2022-08-25T08:54:06.196Z,28.15
2022-08-25T08:55:07.194Z,28.17
2022-08-25T08:56:06.158Z,28.19
2022-08-25T08:57:06.154Z,28.22
2022-08-25T08:58:06.314Z,28.27
2022-08-25T08:59:06.596Z,28.34
2022-08-25T09:00:06.122Z,28.48
2022-08-25T09:01:06.116Z,28.59
2022-08-25T09:02:06.176Z,28.73
2022-08-25T09:03:07.109Z,28.81
2022-08-25T09:04:06.083Z,28.85
2022-08-25T09:05:06.056Z,28.89
2022-08-25T09:06:06.795Z,29.05
2022-08-25T09:07:06.045Z,29.08
2022-08-25T09:08:06.198Z,29.08
2022-08-25T09:09:06.706Z,29.09
2022-08-25T09:10:06.023Z,29.14
2022-08-25T09:11:06.014Z,29.26
2022-08-25T09:12:05.994Z,29.37
2022-08-25T09:13:11.834Z,29.49
2022-08-25T09:14:07.016Z,29.64
2022-08-25T09:15:12.775Z,29.71
2022-08-25T09:16:06.987Z,29.85
2022-08-25T09:17:05.935Z,30.01
2022-08-25T09:18:05.948Z,30.10
2022-08-25T09:19:05.917Z,30.19
2022-08-25T09:20:05.908Z,30.31
2022-08-25T09:21:07.250Z,30.29
2022-08-25T09:22:35.164Z,30.32
2022-08-25T09:23:06.880Z,30.37
2022-08-25T09:24:05.876Z,30.47
2022-08-25T09:25:08.669Z,30.45
2022-08-25T09:26:05.850Z,30.34
2022-08-25T09:27:05.842Z,30.27
2022-08-25T09:28:06.065Z,30.26
2022-08-25T09:29:06.206Z,30.23
2022-08-25T09:30:05.825Z,30.29
2022-08-25T09:31:05.851Z,30.29
2022-08-25T09:32:05.782Z,30.35
2022-08-25T09:33:05.774Z,30.46
2022-08-25T09:34:05.793Z,30.57
2022-08-25T09:35:05.761Z,30.43
2022-08-25T09:36:06.275Z,30.29
2022-08-25T09:37:05.748Z,30.08
2022-08-25T09:38:05.858Z,29.98
2022-08-25T09:39:05.719Z,30.02
2022-08-25T09:40:05.781Z,30.04
2022-08-25T09:41:05.703Z,30.07
2022-08-25T09:42:05.693Z,30.13
2022-08-25T09:43:05.673Z,30.13
2022-08-25T09:44:05.660Z,30.15
2022-08-25T09:45:05.843Z,30.29
2022-08-25T09:46:05.710Z,30.47
2022-08-25T09:47:05.621Z,30.64
2022-08-25T09:48:05.776Z,30.75
2022-08-25T09:49:05.606Z,30.86
2022-08-25T09:50:05.721Z,30.92
2022-08-25T09:51:05.582Z,30.84
2022-08-25T09:52:05.579Z,30.89
2022-08-25T09:53:17.463Z,30.97
2022-08-25T09:54:10.811Z,30.98
2022-08-25T09:55:05.543Z,31.10
2022-08-25T09:56:05.544Z,30.98
2022-08-25T09:57:05.552Z,30.84
2022-08-25T09:58:09.467Z,30.88
2022-08-25T09:59:05.502Z,31.04
2022-08-25T10:00:06.501Z,31.17
2022-08-25T10:01:05.514Z,31.16
2022-08-25T10:02:05.598Z,30.70
2022-08-25T10:03:05.618Z,30.39
2022-08-25T10:04:05.498Z,30.95
2022-08-25T10:05:05.470Z,31.68
2022-08-25T10:06:05.429Z,32.38
2022-08-25T10:07:05.421Z,32.69
2022-08-25T10:08:05.402Z,33.09
2022-08-25T10:09:05.955Z,32.45
2022-08-25T10:10:05.389Z,31.95
2022-08-25T10:11:06.526Z,31.50
2022-08-25T10:12:05.371Z,31.17
2022-08-25T10:13:06.234Z,30.75
2022-08-25T10:14:05.332Z,30.73
2022-08-25T10:15:05.345Z,31.28
2022-08-25T10:16:05.508Z,31.35
2022-08-25T10:17:06.309Z,31.04
2022-08-25T10:18:05.297Z,30.99
2022-08-25T10:19:05.305Z,31.73
2022-08-25T10:20:05.266Z,32.22
2022-08-25T10:21:07.506Z,32.22
2022-08-25T10:22:05.267Z,32.14
2022-08-25T10:23:05.464Z,32.51
2022-08-25T10:24:05.264Z,32.94
2022-08-25T10:25:05.224Z,33.12
2022-08-25T10:26:05.228Z,33.28
2022-08-25T10:27:05.197Z,33.26
2022-08-25T10:28:05.341Z,33.28
2022-08-25T10:29:05.211Z,32.85
2022-08-25T10:30:05.166Z,32.85
2022-08-25T10:31:05.211Z,32.94
2022-08-25T10:32:07.062Z,33.15
2022-08-25T10:33:06.334Z,32.48
2022-08-25T10:34:05.145Z,32.13
2022-08-25T10:35:05.134Z,31.84
2022-08-25T10:36:05.115Z,31.46
2022-08-25T10:37:05.103Z,31.47
2022-08-25T10:38:05.092Z,31.69
2022-08-25T10:39:05.066Z,31.68
2022-08-25T10:40:06.117Z,31.76
2022-08-25T10:41:05.063Z,31.93
2022-08-25T10:42:05.268Z,32.13
2022-08-25T10:43:05.208Z,32.03
2022-08-25T10:44:05.022Z,32.03
2022-08-25T10:45:05.017Z,31.99
2022-08-25T10:46:05.058Z,31.93
2022-08-25T10:47:05.433Z,32.08
2022-08-25T10:48:05.003Z,32.06
2022-08-25T10:49:05.000Z,32.23
2022-08-25T10:50:04.968Z,32.44
2022-08-25T10:51:04.953Z,32.51
2022-08-25T10:52:04.965Z,32.65
2022-08-25T10:53:05.028Z,32.79
2022-08-25T10:54:04.939Z,32.67
2022-08-25T10:55:04.914Z,32.81
2022-08-25T10:56:07.449Z,32.40
2022-08-25T10:57:08.072Z,32.18
2022-08-25T10:58:04.892Z,32.14
2022-08-25T10:59:05.821Z,32.33
2022-08-25T11:00:04.891Z,32.57
2022-08-25T11:01:04.868Z,32.81
2022-08-25T11:02:04.895Z,32.74
2022-08-25T11:03:05.899Z,32.47
2022-08-25T11:04:04.879Z,32.29
2022-08-25T11:05:04.931Z,32.30
2022-08-25T11:06:04.805Z,32.30
2022-08-25T11:07:04.781Z,32.26
2022-08-25T11:08:04.773Z,32.32
2022-08-25T11:09:05.381Z,32.43
2022-08-25T11:10:04.750Z,32.50
2022-08-25T11:11:04.761Z,32.32
2022-08-25T11:12:04.741Z,32.04
2022-08-25T11:13:04.857Z,31.80
2022-08-25T11:14:09.419Z,31.69
2022-08-25T11:15:05.706Z,31.76
2022-08-25T11:16:21.716Z,31.85
2022-08-25T11:17:06.067Z,31.80
2022-08-25T11:18:05.107Z,31.68
2022-08-25T11:19:05.735Z,31.54
2022-08-25T11:20:04.664Z,31.65
2022-08-25T11:21:04.643Z,31.89
2022-08-25T11:22:04.631Z,32.10
2022-08-25T11:23:04.708Z,32.14
2022-08-25T11:24:04.631Z,32.14
2022-08-25T11:25:04.604Z,32.06
2022-08-25T11:26:04.603Z,32.19
2022-08-25T11:27:04.584Z,32.30
2022-08-25T11:28:04.726Z,32.47
2022-08-25T11:29:04.565Z,32.56
2022-08-25T11:30:06.079Z,32.75
2022-08-25T11:31:05.124Z,33.00
2022-08-25T11:32:04.526Z,33.35
2022-08-25T11:33:04.521Z,33.68
2022-08-25T11:34:04.506Z,33.88
2022-08-25T11:35:04.499Z,34.05
2022-08-25T11:36:04.495Z,34.17
2022-08-25T11:37:04.476Z,34.25
2022-08-25T11:38:04.757Z,34.12
2022-08-25T11:39:04.475Z,34.05
2022-08-25T11:40:04.510Z,33.84
2022-08-25T11:41:04.444Z,33.73
2022-08-25T11:42:05.449Z,33.84
2022-08-25T11:43:04.427Z,33.97
2022-08-25T11:44:04.412Z,33.68
2022-08-25T11:45:04.412Z,33.38
2022-08-25T11:46:04.505Z,33.01
2022-08-25T11:47:05.641Z,32.88
2022-08-25T11:48:04.614Z,32.89
2022-08-25T11:49:05.312Z,33.00
2022-08-25T11:50:04.351Z,33.00
2022-08-25T11:51:04.905Z,32.99
2022-08-25T11:52:04.351Z,32.78
2022-08-25T11:53:04.343Z,32.48
2022-08-25T11:54:05.331Z,32.37
2022-08-25T11:55:04.300Z,32.15
2022-08-25T11:56:04.326Z,32.32
2022-08-25T11:57:04.283Z,32.35
2022-08-25T11:58:04.437Z,32.30
2022-08-25T11:59:04.263Z,32.25
2022-08-25T12:00:04.264Z,31.96
2022-08-25T12:01:04.241Z,31.81
2022-08-25T12:02:04.238Z,31.75
2022-08-25T12:03:04.224Z,31.58
2022-08-25T12:04:04.258Z,31.43
2022-08-25T12:05:04.396Z,31.43
2022-08-25T12:06:04.188Z,31.66
2022-08-25T12:07:04.178Z,31.85
2022-08-25T12:08:04.293Z,32.00
2022-08-25T12:09:04.166Z,32.23
2022-08-25T12:10:04.152Z,32.25
2022-08-25T12:11:09.971Z,32.29
2022-08-25T12:12:05.126Z,32.21
2022-08-25T12:13:04.760Z,31.99
2022-08-25T12:14:04.101Z,31.92
2022-08-25T12:15:04.143Z,31.91
2022-08-25T12:16:04.100Z,31.89
2022-08-25T12:17:04.134Z,31.88
2022-08-25T12:18:07.348Z,31.84
2022-08-25T12:19:04.061Z,31.78
2022-08-25T12:20:04.083Z,31.84
2022-08-25T12:21:04.039Z,31.86
2022-08-25T12:22:04.299Z,32.06
2022-08-25T12:23:04.021Z,32.55
2022-08-25T12:24:04.011Z,32.82
2022-08-25T12:25:03.998Z,33.15
2022-08-25T12:26:04.120Z,33.29
2022-08-25T12:27:06.170Z,33.72
2022-08-25T12:28:03.996Z,34.10
2022-08-25T12:29:07.340Z,34.52
2022-08-25T12:30:05.114Z,34.85
2022-08-25T12:31:04.007Z,35.15
2022-08-25T12:32:04.970Z,35.15
2022-08-25T12:33:03.905Z,34.81
2022-08-25T12:34:03.893Z,34.42
2022-08-25T12:35:03.889Z,34.10
2022-08-25T12:36:03.921Z,34.13
2022-08-25T12:37:06.415Z,34.34
2022-08-25T12:38:03.885Z,34.72
2022-08-25T12:39:03.854Z,34.81
2022-08-25T12:40:03.920Z,34.82
2022-08-25T12:41:03.832Z,35.02
2022-08-25T12:42:03.840Z,35.34
2022-08-25T12:43:04.163Z,35.50
2022-08-25T12:44:03.805Z,35.55
2022-08-25T12:45:03.792Z,35.77
2022-08-25T12:46:03.859Z,36.01
2022-08-25T12:47:03.768Z,35.97
2022-08-25T12:48:03.778Z,36.03
2022-08-25T12:49:03.760Z,36.13
2022-08-25T12:50:03.761Z,36.03
2022-08-25T12:51:03.940Z,36.13
2022-08-25T12:52:03.750Z,36.08
2022-08-25T12:53:03.723Z,35.80
2022-08-25T12:54:05.413Z,35.74
2022-08-25T12:55:03.715Z,35.85
2022-08-25T12:56:03.708Z,35.58